createdAt,value
2019-03-05T00:01:15.237Z,49.04
2019-03-05T00:03:44.358Z,49.62
2019-03-05T00:06:13.588Z,49.60
2019-03-05T00:08:42.774Z,49.85
2019-03-05T00:11:11.764Z,50.71
2019-03-05T00:13:41.008Z,50.63
2019-03-05T00:16:10.647Z,51.58
2019-03-05T00:18:39.810Z,50.77
2019-03-05T00:21:08.987Z,51.41
2019-03-05T00:23:59.276Z,50.29
2019-03-05T00:26:33.737Z,50.19
2019-03-05T00:29:47.519Z,49.84
2019-03-05T00:32:16.485Z,50.79
2019-03-05T00:34:57.069Z,50.39
2019-03-05T00:37:33.603Z,51.19
2019-03-05T00:40:09.147Z,51.52
2019-03-05T00:42:48.997Z,51.18
2019-03-05T00:45:36.143Z,51.54
2019-03-05T00:50:33.807Z,51.31
2019-03-05T00:54:08.831Z,51.18
2019-03-05T00:56:47.673Z,51.08
2019-03-05T00:59:32.142Z,50.74
2019-03-05T01:02:15.457Z,50.96
2019-03-05T01:04:56.669Z,51.50
2019-03-05T01:07:25.836Z,52.04
2019-03-05T01:09:55.406Z,52.33
2019-03-05T01:12:24.656Z,51.97
2019-03-05T01:14:54.032Z,52.46
2019-03-05T01:17:23.187Z,53.22
2019-03-05T01:19:52.832Z,52.37
2019-03-05T01:22:22.047Z,52.64
2019-03-05T01:24:51.107Z,53.15
2019-03-05T01:27:20.695Z,52.93
2019-03-05T01:29:50.259Z,53.09
2019-03-05T01:32:53.792Z,52.25
2019-03-05T01:35:29.908Z,53.41
2019-03-05T01:37:59.126Z,53.82
2019-03-05T01:40:33.131Z,52.93
2019-03-05T01:43:01.947Z,53.06
2019-03-05T01:45:31.231Z,52.55
2019-03-05T01:48:00.537Z,54.24
2019-03-05T01:50:29.823Z,53.79
2019-03-05T01:52:59.304Z,53.37
2019-03-05T01:55:28.296Z,53.16
2019-03-05T01:57:57.532Z,53.39
2019-03-05T02:00:26.812Z,53.28
2019-03-05T02:02:55.800Z,53.18
2019-03-05T02:05:25.582Z,53.46
2019-03-05T02:07:55.619Z,53.55
2019-03-05T02:10:24.448Z,53.30
2019-03-05T02:12:53.436Z,53.66
2019-03-05T02:15:23.082Z,53.29
2019-03-05T02:17:52.163Z,53.12
2019-03-05T02:20:23.243Z,52.87
2019-03-05T02:23:05.586Z,53.37
2019-03-05T02:25:48.342Z,53.63
2019-03-05T02:29:33.186Z,53.53
2019-03-05T02:32:12.906Z,53.04
2019-03-05T02:36:05.381Z,53.16
2019-03-05T02:38:42.113Z,53.02
2019-03-05T02:42:23.545Z,53.46
2019-03-05T02:45:19.192Z,55.08
2019-03-05T02:50:03.626Z,55.29
2019-03-05T02:52:49.212Z,55.03
2019-03-05T02:56:34.188Z,55.06
2019-03-05T02:59:02.022Z,56.10
2019-03-05T03:01:44.150Z,56.54
2019-03-05T03:04:15.432Z,56.02
2019-03-05T03:06:44.476Z,56.34
2019-03-05T03:10:19.160Z,56.54
2019-03-05T03:12:48.129Z,56.26
2019-03-05T03:15:18.179Z,56.50
2019-03-05T03:17:47.543Z,56.39
2019-03-05T03:20:18.160Z,56.22
2019-03-05T03:22:47.042Z,56.60
2019-03-05T03:25:19.053Z,56.23
2019-03-05T03:27:48.150Z,56.04
2019-03-05T03:30:18.766Z,57.42
2019-03-05T03:32:47.860Z,56.91
2019-03-05T03:35:17.065Z,57.05
2019-03-05T03:37:46.131Z,56.56
2019-03-05T03:40:22.453Z,57.28
2019-03-05T03:42:52.121Z,56.54
2019-03-05T03:45:23.692Z,56.30
2019-03-05T03:47:53.287Z,56.86
2019-03-05T03:50:22.424Z,57.62
2019-03-05T03:52:51.422Z,57.32
2019-03-05T03:55:20.650Z,57.43
2019-03-05T03:57:49.736Z,57.11
2019-03-05T04:00:23.058Z,57.34
2019-03-05T04:02:52.275Z,57.47
2019-03-05T04:05:21.458Z,57.05
2019-03-05T04:07:50.736Z,57.60
2019-03-05T04:10:20.081Z,57.49
2019-03-05T04:12:49.143Z,57.91
2019-03-05T04:15:19.750Z,57.62
2019-03-05T04:17:49.065Z,58.40
2019-03-05T04:20:23.556Z,58.68
2019-03-05T04:22:52.905Z,59.02
2019-03-05T04:25:22.007Z,59.84
2019-03-05T04:27:50.996Z,59.70
2019-03-05T04:30:20.278Z,59.64
2019-03-05T04:32:49.384Z,59.17
2019-03-05T04:35:18.443Z,59.11
2019-03-05T04:37:47.366Z,59.42
2019-03-05T04:40:17.003Z,59.10
2019-03-05T04:42:46.018Z,58.46
2019-03-05T04:45:31.781Z,57.79
2019-03-05T04:48:00.788Z,58.39
2019-03-05T04:50:37.303Z,58.30
2019-03-05T04:53:06.597Z,58.27
2019-03-05T04:55:35.835Z,58.70
2019-03-05T04:58:04.940Z,58.99
2019-03-05T05:00:35.053Z,58.84
2019-03-05T05:03:04.162Z,58.83
2019-03-05T05:05:33.672Z,58.51
2019-03-05T05:08:03.428Z,58.92
2019-03-05T05:10:32.830Z,58.53
2019-03-05T05:13:01.792Z,59.86
2019-03-05T05:15:32.784Z,59.64
2019-03-05T05:18:01.831Z,58.85
2019-03-05T05:20:31.121Z,59.52
2019-03-05T05:23:00.107Z,59.53
2019-03-05T05:25:29.264Z,59.94
2019-03-05T05:27:58.379Z,59.36
2019-03-05T05:30:30.330Z,60.16
2019-03-05T05:32:59.461Z,60.37
2019-03-05T05:35:28.662Z,60.53
2019-03-05T05:37:57.690Z,60.37
2019-03-05T05:40:29.624Z,60.08
2019-03-05T05:42:58.859Z,61.59
2019-03-05T05:45:32.549Z,60.08
2019-03-05T05:48:02.791Z,59.63
2019-03-05T05:50:32.068Z,58.95
2019-03-05T05:53:01.120Z,59.13
2019-03-05T05:55:30.206Z,59.60
2019-03-05T05:57:59.427Z,60.45
2019-03-05T06:00:28.701Z,58.58
2019-03-05T06:02:58.111Z,58.52
2019-03-05T06:05:27.757Z,58.54
2019-03-05T06:07:57.056Z,58.46
2019-03-05T06:10:26.259Z,57.85
2019-03-05T06:12:55.238Z,57.28
2019-03-05T06:15:24.242Z,56.39
2019-03-05T06:17:53.751Z,55.80
2019-03-05T06:20:23.160Z,56.29
2019-03-05T06:22:52.125Z,56.33
2019-03-05T06:25:21.404Z,55.29
2019-03-05T06:27:50.931Z,54.95
2019-03-05T06:30:20.531Z,53.92
2019-03-05T06:32:49.659Z,54.89
2019-03-05T06:35:18.926Z,55.37
2019-03-05T06:37:48.573Z,55.67
2019-03-05T06:40:18.226Z,56.00
2019-03-05T06:42:48.309Z,55.74
2019-03-05T06:45:17.888Z,54.84
2019-03-05T06:47:46.941Z,56.69
2019-03-05T06:50:16.570Z,55.92
2019-03-05T06:52:45.547Z,54.77
2019-03-05T06:55:14.931Z,54.52
2019-03-05T06:57:44.719Z,54.90
2019-03-05T07:00:16.800Z,53.67
2019-03-05T07:02:45.856Z,53.71
2019-03-05T07:06:24.592Z,52.78
2019-03-05T07:09:00.864Z,52.75
2019-03-05T07:11:40.295Z,55.01
2019-03-05T07:14:15.858Z,53.50
2019-03-05T07:16:55.163Z,49.93
2019-03-05T07:19:34.017Z,48.68
2019-03-05T07:22:21.155Z,49.85
2019-03-05T07:24:51.217Z,46.85
2019-03-05T07:27:30.968Z,46.87
2019-03-05T07:30:03.688Z,46.85
2019-03-05T07:32:33.514Z,45.33
2019-03-05T07:35:02.527Z,45.84
2019-03-05T07:37:31.592Z,47.54
2019-03-05T07:40:01.200Z,48.08
2019-03-05T07:42:30.385Z,46.82
2019-03-05T07:44:59.812Z,47.00
2019-03-05T07:47:28.922Z,46.42
2019-03-05T07:49:58.001Z,45.39
2019-03-05T07:52:27.255Z,45.26
2019-03-05T07:54:56.430Z,45.48
2019-03-05T07:57:25.418Z,43.45
2019-03-05T07:59:55.213Z,43.43
2019-03-05T08:02:24.325Z,43.19
2019-03-05T08:04:53.687Z,43.50
2019-03-05T08:07:23.595Z,40.74
2019-03-05T08:09:52.535Z,41.93
2019-03-05T08:12:35.759Z,41.90
2019-03-05T08:15:18.317Z,41.80
2019-03-05T08:17:47.268Z,41.38
2019-03-05T08:20:16.983Z,39.41
2019-03-05T08:22:45.973Z,39.46
2019-03-05T08:25:15.844Z,39.57
2019-03-05T08:27:44.880Z,40.06
2019-03-05T08:30:15.314Z,38.63
2019-03-05T08:32:44.300Z,39.53
2019-03-05T08:35:14.505Z,38.68
2019-03-05T08:37:44.643Z,38.17
2019-03-05T08:40:14.057Z,36.28
2019-03-05T08:42:44.159Z,37.25
2019-03-05T08:45:14.291Z,37.02
2019-03-05T08:47:43.473Z,36.36
2019-03-05T08:50:13.052Z,35.54
2019-03-05T08:52:42.403Z,36.36
2019-03-05T08:55:11.581Z,35.83
2019-03-05T08:57:42.299Z,35.98
2019-03-05T09:00:13.199Z,34.87
2019-03-05T09:02:48.635Z,34.65
2019-03-05T09:05:11.683Z,34.80
2019-03-05T09:07:40.849Z,34.97
2019-03-05T09:10:12.501Z,34.46
2019-03-05T09:12:42.447Z,35.23
2019-03-05T09:15:13.437Z,35.16
2019-03-05T09:17:42.441Z,34.74
2019-03-05T09:20:13.307Z,33.67
2019-03-05T09:22:42.582Z,34.39
2019-03-05T09:25:12.681Z,34.29
2019-03-05T09:27:42.771Z,33.48
2019-03-05T09:30:15.277Z,32.91
2019-03-05T09:32:44.777Z,31.83
2019-03-05T09:35:13.995Z,32.33
2019-03-05T09:37:43.303Z,31.80
2019-03-05T09:40:15.675Z,32.67
2019-03-05T09:42:45.464Z,32.01
2019-03-05T09:45:16.198Z,31.68
2019-03-05T09:47:45.907Z,31.41
2019-03-05T09:50:16.037Z,30.14
2019-03-05T09:52:54.525Z,29.77
2019-03-05T09:55:16.600Z,30.62
2019-03-05T09:57:45.751Z,30.12
2019-03-05T10:00:17.333Z,29.80
2019-03-05T10:02:46.433Z,28.93
2019-03-05T10:05:16.107Z,29.00
2019-03-05T10:07:45.411Z,29.33
2019-03-05T10:10:17.002Z,28.89
2019-03-05T10:12:45.956Z,28.67
2019-03-05T10:15:17.323Z,28.95
2019-03-05T10:17:46.364Z,29.57
2019-03-05T10:20:17.776Z,29.17
2019-03-05T10:22:47.324Z,28.85
2019-03-05T10:25:18.140Z,29.02
2019-03-05T10:27:47.316Z,28.40
2019-03-05T10:30:24.870Z,28.37
2019-03-05T10:32:47.706Z,28.68
2019-03-05T10:35:16.773Z,28.33
2019-03-05T10:37:45.853Z,28.40
2019-03-05T10:40:15.691Z,28.38
2019-03-05T10:42:44.896Z,28.53
2019-03-05T10:45:16.073Z,28.30
2019-03-05T10:47:44.941Z,28.38
2019-03-05T10:50:16.845Z,27.51
2019-03-05T10:52:45.917Z,27.82
2019-03-05T10:55:25.699Z,27.80
2019-03-05T10:57:45.119Z,27.88
2019-03-05T11:00:17.251Z,26.84
2019-03-05T11:02:47.050Z,27.06
2019-03-05T11:05:16.165Z,27.42
2019-03-05T11:07:45.631Z,28.41
2019-03-05T11:10:15.116Z,27.71
2019-03-05T11:12:45.316Z,27.79
2019-03-05T11:15:17.963Z,28.57
2019-03-05T11:17:47.678Z,28.90
2019-03-05T11:20:17.703Z,29.07
2019-03-05T11:22:46.848Z,29.24
2019-03-05T11:25:17.038Z,29.34
2019-03-05T11:27:46.216Z,29.68
2019-03-05T11:30:17.560Z,30.35
2019-03-05T11:32:46.706Z,29.96
2019-03-05T11:35:17.529Z,30.63
2019-03-05T11:37:46.512Z,30.70
2019-03-05T11:40:21.125Z,30.82
2019-03-05T11:42:45.107Z,30.87
2019-03-05T11:45:18.880Z,30.77
2019-03-05T11:47:48.004Z,31.90
2019-03-05T11:50:17.334Z,31.00
2019-03-05T11:52:46.423Z,31.76
2019-03-05T11:55:17.215Z,31.34
2019-03-05T11:57:46.919Z,32.01
2019-03-05T12:00:19.236Z,31.32
2019-03-05T12:02:48.275Z,31.83
2019-03-05T12:05:17.730Z,31.89
2019-03-05T12:07:46.689Z,32.19
2019-03-05T12:10:17.171Z,32.43
2019-03-05T12:12:46.223Z,32.08
2019-03-05T12:15:16.885Z,32.12
2019-03-05T12:17:45.929Z,32.08
2019-03-05T12:20:15.217Z,31.78
2019-03-05T12:22:44.803Z,31.73
2019-03-05T12:25:15.737Z,32.03
2019-03-05T12:27:45.332Z,31.21
2019-03-05T12:30:18.060Z,31.55
2019-03-05T12:32:47.643Z,32.19
2019-03-05T12:35:17.126Z,32.04
2019-03-05T12:37:46.289Z,31.52
2019-03-05T12:40:16.688Z,32.06
2019-03-05T12:42:45.834Z,32.00
2019-03-05T12:45:15.246Z,32.17
2019-03-05T12:47:45.042Z,32.11
2019-03-05T12:50:16.459Z,31.51
2019-03-05T12:52:45.889Z,32.00
2019-03-05T12:55:15.462Z,30.94
2019-03-05T12:57:45.161Z,31.20
2019-03-05T13:00:17.909Z,32.28
2019-03-05T13:02:46.941Z,32.09
2019-03-05T13:05:16.545Z,32.02
2019-03-05T13:07:45.307Z,31.91
2019-03-05T13:10:16.150Z,31.90
2019-03-05T13:12:45.354Z,32.08
2019-03-05T13:15:17.128Z,31.29
2019-03-05T13:17:47.157Z,30.68
2019-03-05T13:20:16.343Z,30.87
2019-03-05T13:22:46.361Z,31.41
2019-03-05T13:25:16.384Z,31.89
2019-03-05T13:27:45.848Z,32.41
2019-03-05T13:30:17.683Z,34.13
2019-03-05T13:32:46.617Z,32.47
2019-03-05T13:35:16.475Z,32.07
2019-03-05T13:37:46.674Z,32.36
2019-03-05T13:40:17.983Z,32.03
2019-03-05T13:42:47.261Z,32.23
2019-03-05T13:45:16.486Z,32.00
2019-03-05T13:47:56.719Z,32.21
2019-03-05T13:52:41.311Z,31.92
2019-03-05T13:58:25.663Z,32.38
2019-03-05T14:00:54.947Z,32.08
2019-03-05T14:03:29.860Z,32.33
2019-03-05T14:06:43.318Z,32.03
2019-03-05T14:09:17.713Z,32.02
2019-03-05T14:11:48.019Z,31.75
2019-03-05T14:14:22.955Z,31.94
2019-03-05T14:16:58.163Z,31.81
2019-03-05T14:19:28.098Z,32.16
2019-03-05T14:21:58.144Z,32.26
2019-03-05T14:24:27.405Z,33.16
2019-03-05T14:26:58.234Z,32.84
2019-03-05T14:29:29.274Z,33.30
2019-03-05T14:31:56.749Z,32.66
2019-03-05T14:34:25.988Z,33.24
2019-03-05T14:36:55.917Z,33.06
2019-03-05T14:39:28.231Z,32.46
2019-03-05T14:41:57.752Z,32.93
2019-03-05T14:44:26.766Z,32.87
2019-03-05T14:46:58.839Z,32.95
2019-03-05T14:49:28.721Z,33.59
2019-03-05T14:51:58.052Z,33.10
2019-03-05T14:54:27.547Z,33.47
2019-03-05T14:56:57.307Z,33.26
2019-03-05T14:59:26.799Z,33.56
2019-03-05T15:01:56.453Z,33.59
2019-03-05T15:04:26.417Z,33.93
2019-03-05T15:06:55.574Z,33.39
2019-03-05T15:09:24.742Z,33.82
2019-03-05T15:11:54.335Z,33.87
2019-03-05T15:14:23.595Z,34.31
2019-03-05T15:16:53.002Z,34.29
2019-03-05T15:19:22.631Z,34.08
2019-03-05T15:21:51.813Z,33.90
2019-03-05T15:24:21.029Z,33.80
2019-03-05T15:26:50.938Z,34.24
2019-03-05T15:29:20.829Z,34.01
2019-03-05T15:31:50.474Z,36.10
2019-03-05T15:34:19.805Z,35.04
2019-03-05T15:36:51.924Z,34.32
2019-03-05T15:39:18.181Z,34.62
2019-03-05T15:41:47.221Z,34.62
2019-03-05T15:44:16.735Z,34.82
2019-03-05T15:46:46.353Z,34.99
2019-03-05T15:49:15.470Z,34.70
2019-03-05T15:51:44.344Z,34.47
2019-03-05T15:54:13.540Z,34.20
2019-03-05T15:56:42.786Z,34.83
2019-03-05T15:59:11.878Z,35.05
2019-03-05T16:01:42.184Z,35.64
2019-03-05T16:04:11.343Z,35.12
2019-03-05T16:06:40.341Z,35.23
2019-03-05T16:09:17.756Z,35.41
2019-03-05T16:11:46.919Z,35.80
2019-03-05T16:14:16.408Z,35.86
2019-03-05T16:16:45.317Z,36.15
2019-03-05T16:19:16.545Z,36.37
2019-03-05T16:21:43.731Z,36.75
2019-03-05T16:24:12.963Z,36.58
2019-03-05T16:26:42.650Z,36.84
2019-03-05T16:29:11.727Z,36.97
2019-03-05T16:31:49.818Z,37.45
2019-03-05T16:34:23.316Z,37.78
2019-03-05T16:36:57.623Z,37.72
2019-03-05T16:40:05.136Z,38.03
2019-03-05T16:42:41.909Z,38.30
2019-03-05T16:45:22.896Z,38.62
2019-03-05T16:48:01.706Z,39.07
2019-03-05T16:50:36.650Z,39.15
2019-03-05T16:53:15.825Z,39.49
2019-03-05T16:56:55.138Z,39.96
2019-03-05T17:01:36.971Z,40.10
2019-03-05T17:04:12.576Z,37.64
2019-03-05T17:07:46.184Z,36.79
2019-03-05T17:10:20.060Z,31.90
2019-03-05T17:12:49.001Z,35.51
2019-03-05T17:15:18.278Z,29.93
2019-03-05T17:17:47.143Z,33.24
2019-03-05T17:20:16.844Z,37.93
2019-03-05T17:22:45.860Z,43.06
2019-03-05T17:25:16.119Z,35.62
2019-03-05T17:27:45.349Z,25.98
2019-03-05T17:30:15.548Z,28.81
2019-03-05T17:32:44.707Z,32.05
2019-03-05T17:35:13.893Z,33.73
2019-03-05T17:37:43.005Z,35.11
2019-03-05T17:40:12.211Z,36.11
2019-03-05T17:42:41.380Z,37.11
2019-03-05T17:45:13.442Z,39.13
2019-03-05T17:47:42.824Z,39.56
2019-03-05T17:50:12.212Z,39.42
2019-03-05T17:52:41.507Z,39.88
2019-03-05T17:55:12.813Z,40.16
2019-03-05T17:57:41.849Z,40.71
2019-03-05T18:00:12.788Z,40.90
2019-03-05T18:02:41.818Z,41.25
2019-03-05T18:05:10.979Z,41.80
2019-03-05T18:07:40.545Z,41.67
2019-03-05T18:10:10.058Z,42.49
2019-03-05T18:12:38.991Z,42.62
2019-03-05T18:15:08.980Z,42.78
2019-03-05T18:17:38.456Z,42.58
2019-03-05T18:20:09.239Z,43.23
2019-03-05T18:22:38.231Z,43.25
2019-03-05T18:25:08.003Z,43.55
2019-03-05T18:27:37.248Z,43.81
2019-03-05T18:30:09.074Z,43.98
2019-03-05T18:32:38.210Z,44.02
2019-03-05T18:35:07.741Z,44.43
2019-03-05T18:37:37.248Z,44.23
2019-03-05T18:40:06.931Z,44.29
2019-03-05T18:42:36.242Z,45.48
2019-03-05T18:45:07.500Z,45.34
2019-03-05T18:47:36.432Z,45.02
2019-03-05T18:50:05.649Z,44.97
2019-03-05T18:52:34.604Z,44.97
2019-03-05T18:55:03.640Z,45.43
2019-03-05T18:57:32.837Z,45.32
2019-03-05T19:00:02.550Z,45.91
2019-03-05T19:02:32.180Z,45.77
2019-03-05T19:05:01.336Z,45.54
2019-03-05T19:07:31.134Z,45.64
2019-03-05T19:10:01.283Z,45.48
2019-03-05T19:12:30.200Z,45.77
2019-03-05T19:14:59.441Z,46.36
2019-03-05T19:17:28.533Z,46.01
2019-03-05T19:19:57.768Z,46.13
2019-03-05T19:22:26.877Z,46.58
2019-03-05T19:24:56.604Z,46.51
2019-03-05T19:27:26.284Z,46.30
2019-03-05T19:29:55.513Z,46.44
2019-03-05T19:32:24.883Z,46.46
2019-03-05T19:34:54.445Z,46.39
2019-03-05T19:37:23.421Z,46.65
2019-03-05T19:39:53.787Z,46.85
2019-03-05T19:42:22.979Z,46.67
2019-03-05T19:44:53.168Z,47.04
2019-03-05T19:47:23.529Z,46.99
2019-03-05T19:49:53.212Z,47.15
2019-03-05T19:52:22.187Z,47.05
2019-03-05T19:54:51.499Z,47.17
2019-03-05T19:57:20.503Z,47.83
2019-03-05T19:59:49.553Z,48.14
2019-03-05T20:02:19.652Z,47.94
2019-03-05T20:04:48.812Z,48.50
2019-03-05T20:07:18.012Z,48.32
2019-03-05T20:09:47.192Z,48.46
2019-03-05T20:12:16.470Z,48.80
2019-03-05T20:14:46.187Z,48.48
2019-03-05T20:17:15.142Z,48.84
2019-03-05T20:19:43.995Z,48.97
2019-03-05T20:22:12.848Z,48.65
2019-03-05T20:24:42.539Z,49.03
2019-03-05T20:27:16.066Z,48.59
2019-03-05T20:29:40.683Z,48.64
2019-03-05T20:32:09.931Z,49.33
2019-03-05T20:34:39.076Z,48.89
2019-03-05T20:37:08.183Z,49.22
2019-03-05T20:39:37.292Z,48.79
2019-03-05T20:42:06.983Z,49.40
2019-03-05T20:44:36.096Z,49.17
2019-03-05T20:47:05.338Z,49.05
2019-03-05T20:49:34.827Z,49.27
2019-03-05T20:52:05.640Z,49.48
2019-03-05T20:54:34.637Z,49.48
2019-03-05T20:57:03.979Z,49.38
2019-03-05T20:59:33.209Z,50.31
2019-03-05T21:02:03.079Z,50.45
2019-03-05T21:04:32.472Z,51.22
2019-03-05T21:07:01.845Z,51.49
2019-03-05T21:09:31.354Z,52.48
2019-03-05T21:12:00.493Z,52.16
2019-03-05T21:14:29.447Z,52.70
2019-03-05T21:16:58.686Z,53.44
2019-03-05T21:19:27.716Z,55.67
2019-03-05T21:21:56.725Z,58.97
2019-03-05T21:24:26.010Z,62.47
2019-03-05T21:26:55.195Z,64.93
2019-03-05T21:29:25.488Z,65.38
2019-03-05T21:31:54.692Z,65.90
2019-03-05T21:34:23.873Z,66.30
2019-03-05T21:36:52.842Z,66.71
2019-03-05T21:39:22.134Z,66.98
2019-03-05T21:41:51.252Z,66.94
2019-03-05T21:44:20.633Z,67.88
2019-03-05T21:46:49.877Z,69.13
2019-03-05T21:49:19.040Z,69.94
2019-03-05T21:51:48.094Z,69.55
2019-03-05T21:54:17.233Z,69.64
2019-03-05T21:56:46.491Z,70.39
2019-03-05T21:59:16.243Z,70.30
2019-03-05T22:01:46.222Z,69.40
2019-03-05T22:04:15.359Z,70.11
2019-03-05T22:06:44.970Z,70.19
2019-03-05T22:09:14.894Z,70.12
2019-03-05T22:11:44.621Z,69.62
2019-03-05T22:14:14.194Z,69.69
2019-03-05T22:16:43.995Z,69.79
2019-03-05T22:19:13.323Z,70.24
2019-03-05T22:21:42.682Z,68.90
2019-03-05T22:24:11.766Z,68.28
2019-03-05T22:26:40.600Z,68.57
2019-03-05T22:29:09.633Z,68.79
2019-03-05T22:31:38.663Z,68.65
2019-03-05T22:34:08.724Z,69.11
2019-03-05T22:36:37.748Z,68.08
2019-03-05T22:39:07.335Z,67.96
2019-03-05T22:41:38.351Z,67.49
2019-03-05T22:44:06.051Z,67.74
2019-03-05T22:46:36.027Z,67.11
2019-03-05T22:49:05.191Z,67.43
2019-03-05T22:51:34.368Z,67.76
2019-03-05T22:54:03.840Z,67.40
2019-03-05T22:56:32.891Z,67.08
2019-03-05T22:59:02.688Z,66.97
2019-03-05T23:01:37.045Z,66.91
2019-03-05T23:04:06.373Z,67.09
2019-03-05T23:06:35.553Z,67.22
2019-03-05T23:09:05.714Z,67.28
2019-03-05T23:11:34.955Z,67.40
2019-03-05T23:14:04.088Z,66.43
2019-03-05T23:16:33.211Z,66.58
2019-03-05T23:19:03.229Z,67.10
2019-03-05T23:21:32.468Z,66.29
2019-03-05T23:24:01.521Z,65.81
2019-03-05T23:26:31.448Z,66.50
2019-03-05T23:29:00.679Z,66.91
2019-03-05T23:31:29.831Z,66.72
2019-03-05T23:33:59.465Z,66.66
2019-03-05T23:36:28.451Z,66.11
2019-03-05T23:38:57.625Z,66.20
2019-03-05T23:41:27.189Z,65.79
2019-03-05T23:43:56.776Z,66.28
2019-03-05T23:46:26.199Z,66.06
2019-03-05T23:48:55.111Z,66.37
2019-03-05T23:51:24.400Z,67.51
2019-03-05T23:53:53.688Z,67.30
2019-03-05T23:56:23.063Z,67.38
2019-03-05T23:58:52.112Z,67.77
